Archival Weather

South Haven Area Rgnl

South Haven, Michigan (KLWA)

Report from: Tuesday, September 19, 2023 4:35 AM EDT
Current time: Tuesday, July 16, 2024 4:42 AM EDT

Current weather – Weather history – Daily summaries
Weather forecast

Temperature9.8°C (49.6°F)
Dew point9.1°C (48.4°F)
Winds Calm
Visibility10 mi. (16.1 km)
Clouds Scattered clouds 6,000 ft. (1,829 m)
Ceiling: Broken clouds 7,000 ft. (2,134 m)
Altimeter30.05 in.Hg (1018 mB)
Relative humidity95 %
Density altitude-606 ft. (-185 m)
Remarks Fully automated report
Automated weather observing station with precipitation discriminator
Flight conditions Visual Meteorological Conditions
Raw dataKLWA 190835Z AUTO 00000KT 10SM SCT060 BKN070 10/09 A3005 RMK AO2 T00980091
An error has occurred. This application may no longer respond until reloaded. Reload 🗙